Time;durP1;ratioP1;P1;durP2;ratioP2;P2;SDS_P1;SDS_P2;PMS_P1;PMS_P2;Temp;Humidity;BMP_temperature;BMP_pressure;BME280_temperature;BME280_humidity;BME280_pressure;Samples;Min_cycle;Max_cycle;Signal;HPM_P1;HPM_P2
2021/05/17 00:01:32;;;;;;;0.80;0.77;;;7.80;99.90;;;;;;5075887;28;20543;-82
2021/05/17 00:04:02;;;;;;;0.67;0.67;;;7.80;99.90;;;;;;5063323;28;20263;-82
2021/05/17 00:06:28;;;;;;;1.20;1.00;;;7.80;99.90;;;;;;5075252;28;20503;-82
2021/05/17 00:08:54;;;;;;;4.40;0.73;;;7.90;99.90;;;;;;5081487;28;20423;-84
2021/05/17 00:11:20;;;;;;;1.03;0.83;;;7.90;99.90;;;;;;5093777;28;20181;-83
2021/05/17 00:13:46;;;;;;;2.70;1.10;;;8.00;99.90;;;;;;5081291;28;20205;-83
2021/05/17 00:16:12;;;;;;;2.50;1.00;;;8.10;99.90;;;;;;5062801;28;20276;-82
2021/05/17 00:18:38;;;;;;;1.73;1.00;;;8.10;99.90;;;;;;5064733;28;20177;-83
2021/05/17 00:21:06;;;;;;;1.50;0.93;;;8.10;99.90;;;;;;5080337;28;20275;-83
2021/05/17 00:23:32;;;;;;;2.40;0.80;;;8.10;99.90;;;;;;5062031;28;20188;-83
2021/05/17 00:25:58;;;;;;;1.27;0.90;;;8.10;99.90;;;;;;5079820;28;20470;-83
2021/05/17 00:28:24;;;;;;;1.30;0.70;;;8.10;99.90;;;;;;5061584;28;20435;-83
2021/05/17 00:30:50;;;;;;;1.83;0.87;;;8.10;99.90;;;;;;5061469;28;20191;-82
2021/05/17 00:33:15;;;;;;;1.10;1.00;;;8.10;99.90;;;;;;5079583;28;20247;-82
2021/05/17 00:35:41;;;;;;;1.73;0.90;;;8.00;99.90;;;;;;5061740;28;20265;-83
2021/05/17 00:38:07;;;;;;;1.30;1.17;;;8.10;99.90;;;;;;5079542;28;20200;-83
2021/05/17 00:40:33;;;;;;;1.43;1.03;;;8.10;99.90;;;;;;5062650;28;20232;-82
2021/05/17 00:42:59;;;;;;;1.60;1.13;;;8.00;99.90;;;;;;5062857;28;20200;-83
2021/05/17 00:45:26;;;;;;;2.63;0.97;;;8.10;99.90;;;;;;5063358;28;20181;-82
2021/05/17 00:47:53;;;;;;;2.43;1.00;;;8.00;99.90;;;;;;5066037;28;20185;-83
2021/05/17 00:50:22;;;;;;;2.20;0.73;;;8.00;99.90;;;;;;5093220;28;20415;-83
2021/05/17 00:52:48;;;;;;;1.80;0.93;;;7.90;99.90;;;;;;5082424;28;20535;-83
2021/05/17 00:55:16;;;;;;;0.70;0.70;;;7.90;99.90;;;;;;5081910;28;20438;-83
2021/05/17 00:57:42;;;;;;;1.33;0.73;;;7.70;99.90;;;;;;5083017;28;20165;-83
2021/05/17 01:00:11;;;;;;;0.50;0.50;;;7.70;99.90;;;;;;5063847;28;20497;-83
2021/05/17 01:02:37;;;;;;;1.47;0.80;;;7.60;99.90;;;;;;5082725;28;20275;-83
2021/05/17 01:05:05;;;;;;;1.70;0.70;;;7.60;99.90;;;;;;5064707;28;20647;-83
2021/05/17 01:07:31;;;;;;;1.80;0.60;;;7.60;99.90;;;;;;5064571;28;20188;-83
2021/05/17 01:09:59;;;;;;;1.53;0.50;;;7.60;99.90;;;;;;5064598;28;20426;-83
2021/05/17 01:12:25;;;;;;;1.67;0.70;;;7.60;99.90;;;;;;5064716;28;20583;-83
2021/05/17 01:14:57;;;;;;;0.77;0.77;;;7.60;99.90;;;;;;5063989;28;20473;-83
2021/05/17 01:17:25;;;;;;;0.60;0.60;;;7.50;99.90;;;;;;5083328;28;20185;-83
2021/05/17 01:20:08;;;;;;;1.67;0.70;;;7.50;99.90;;;;;;5064821;28;20177;-83
2021/05/17 01:22:49;;;;;;;0.83;0.83;;;7.50;99.90;;;;;;5083281;28;20485;-83
2021/05/17 01:25:21;;;;;;;0.80;0.80;;;7.50;99.90;;;;;;5083182;28;20240;-83
2021/05/17 01:27:48;;;;;;;1.07;0.60;;;7.50;99.90;;;;;;5084078;28;20398;-83
2021/05/17 01:30:15;;;;;;;0.83;0.77;;;7.50;99.90;;;;;;5064798;28;20180;-83
2021/05/17 01:32:42;;;;;;;0.67;0.60;;;7.50;99.90;;;;;;5065980;28;20304;-83
2021/05/17 01:35:10;;;;;;;2.27;0.70;;;7.40;99.90;;;;;;5084057;28;20171;-82
2021/05/17 01:37:38;;;;;;;1.40;0.90;;;7.40;99.90;;;;;;5084797;28;20411;-83
2021/05/17 01:40:10;;;;;;;1.17;0.80;;;7.40;99.90;;;;;;5068054;28;20447;-82
2021/05/17 01:42:40;;;;;;;0.60;0.60;;;7.40;99.90;;;;;;5059459;28;20660;-83
2021/05/17 01:45:08;;;;;;;0.70;0.63;;;7.40;99.90;;;;;;5059277;28;20484;-83
2021/05/17 01:47:40;;;;;;;0.70;0.70;;;7.30;99.90;;;;;;5070381;28;20181;-83
2021/05/17 01:50:10;;;;;;;1.17;0.67;;;7.20;99.90;;;;;;5082415;28;20412;-83
2021/05/17 01:52:38;;;;;;;0.90;0.50;;;7.20;99.90;;;;;;5064548;28;20209;-83
2021/05/17 01:55:09;;;;;;;2.40;1.03;;;7.20;99.90;;;;;;5082399;28;20481;-83
2021/05/17 01:57:35;;;;;;;1.83;0.77;;;7.10;99.90;;;;;;5063721;28;20417;-83
2021/05/17 02:00:04;;;;;;;0.97;0.87;;;7.10;99.90;;;;;;5081799;28;20184;-83
2021/05/17 02:02:30;;;;;;;0.77;0.70;;;7.10;99.90;;;;;;5064304;28;20733;-83
2021/05/17 02:04:56;;;;;;;0.60;0.57;;;7.10;99.90;;;;;;5063975;28;20426;-83
2021/05/17 02:07:22;;;;;;;3.37;0.83;;;7.10;99.90;;;;;;5082942;28;20419;-83
2021/05/17 02:09:54;;;;;;;2.93;1.13;;;7.10;99.90;;;;;;5065622;28;20180;-83
2021/05/17 02:12:23;;;;;;;2.30;1.00;;;7.10;99.90;;;;;;5066529;28;20455;-83
2021/05/17 02:14:54;;;;;;;0.90;0.73;;;7.10;99.90;;;;;;5087110;28;20403;-82
2021/05/17 02:17:21;;;;;;;0.97;0.70;;;7.10;99.90;;;;;;5079357;28;20439;-83
2021/05/17 02:19:47;;;;;;;0.90;0.90;;;7.10;99.90;;;;;;5060863;28;20427;-83
2021/05/17 02:22:17;;;;;;;1.07;0.90;;;7.10;99.90;;;;;;5061426;28;20227;-83
2021/05/17 02:24:44;;;;;;;2.10;1.13;;;7.20;99.90;;;;;;5078779;28;20260;-83
2021/05/17 02:27:10;;;;;;;1.97;0.97;;;7.30;99.90;;;;;;5060775;28;20188;-83
2021/05/17 02:29:36;;;;;;;1.80;1.00;;;7.30;99.90;;;;;;5078273;28;20430;-83
2021/05/17 02:32:02;;;;;;;1.83;1.00;;;7.30;99.90;;;;;;5059867;28;20674;-83
2021/05/17 02:34:28;;;;;;;3.03;1.10;;;7.30;99.90;;;;;;5060188;28;20176;-83
2021/05/17 02:36:54;;;;;;;3.60;1.47;;;7.20;99.90;;;;;;5078335;28;20627;-84
2021/05/17 02:39:20;;;;;;;2.07;1.37;;;7.20;99.90;;;;;;5059550;28;20351;-84
2021/05/17 02:41:47;;;;;;;4.73;0.97;;;7.20;99.90;;;;;;5077577;28;20192;-83
2021/05/17 02:44:13;;;;;;;2.00;0.90;;;7.20;99.90;;;;;;5059248;28;20189;-83
2021/05/17 02:46:39;;;;;;;4.00;1.13;;;7.20;99.90;;;;;;5077196;28;20176;-83
2021/05/17 02:49:05;;;;;;;1.87;1.10;;;7.20;99.90;;;;;;5059664;28;20181;-83
2021/05/17 02:51:32;;;;;;;1.60;0.90;;;7.20;99.90;;;;;;5059158;28;20258;-82
2021/05/17 02:54:09;;;;;;;2.90;1.30;;;7.20;99.90;;;;;;5076722;28;20506;-83
2021/05/17 02:57:01;;;;;;;2.07;0.97;;;7.20;99.90;;;;;;5076602;28;20379;-83
2021/05/17 03:00:12;;;;;;;1.83;0.90;;;7.10;99.90;;;;;;5058860;28;20443;-83
2021/05/17 03:03:00;;;;;;;3.83;1.20;;;7.10;99.90;;;;;;5033972;28;20266;-82
2021/05/17 03:05:38;;;;;;;1.17;1.07;;;7.00;99.90;;;;;;5058015;28;20236;-83
2021/05/17 03:08:07;;;;;;;1.80;1.07;;;7.00;99.90;;;;;;5058336;28;20161;-83
2021/05/17 03:10:37;;;;;;;2.27;1.17;;;6.90;99.90;;;;;;5057911;28;20721;-83
2021/05/17 03:13:15;;;;;;;4.40;1.20;;;6.90;99.90;;;;;;5057354;28;20608;-83
2021/05/17 03:15:42;;;;;;;4.20;1.00;;;6.80;99.90;;;;;;5057379;28;20168;-82
2021/05/17 03:18:09;;;;;;;2.13;1.00;;;6.80;99.90;;;;;;5057265;28;20581;-83
2021/05/17 03:20:36;;;;;;;3.60;1.40;;;6.80;99.90;;;;;;5060115;28;20471;-83
2021/05/17 03:23:07;;;;;;;4.33;1.20;;;6.80;99.90;;;;;;5090332;28;20191;-84
2021/05/17 03:25:34;;;;;;;1.80;1.00;;;6.80;99.90;;;;;;5082229;28;20240;-83
2021/05/17 03:28:00;;;;;;;5.27;0.97;;;6.80;99.90;;;;;;5099360;28;20411;-84
2021/05/17 03:30:26;;;;;;;2.50;1.00;;;6.80;99.90;;;;;;5061963;28;20485;-83
2021/05/17 03:32:52;;;;;;;4.73;1.43;;;6.80;99.90;;;;;;5059378;28;20271;-83
2021/05/17 03:35:19;;;;;;;5.40;1.40;;;6.80;99.90;;;;;;5059636;28;20410;-83
2021/05/17 03:37:45;;;;;;;2.50;1.10;;;6.80;99.90;;;;;;5060073;28;20416;-83
2021/05/17 03:40:13;;;;;;;6.90;1.20;;;6.80;99.90;;;;;;5078678;28;20411;-83
2021/05/17 03:42:39;;;;;;;3.40;1.00;;;6.70;99.90;;;;;;5061825;28;20470;-84
2021/05/17 03:45:10;;;;;;;3.27;1.20;;;6.70;99.90;;;;;;5083829;28;20399;-84
2021/05/17 03:47:36;;;;;;;3.17;1.10;;;6.70;99.90;;;;;;5063998;28;20419;-83
2021/05/17 03:50:04;;;;;;;4.00;1.03;;;6.70;99.90;;;;;;5058085;28;20412;-83
2021/05/17 03:52:29;;;;;;;4.23;1.90;;;6.80;99.90;;;;;;5060822;28;20231;-84
2021/05/17 03:54:55;;;;;;;4.87;1.43;;;6.70;99.90;;;;;;5082941;28;20744;-84
2021/05/17 03:57:20;;;;;;;6.47;1.67;;;6.70;99.90;;;;;;5066066;28;20661;-84
2021/05/17 03:59:46;;;;;;;6.23;1.33;;;6.70;99.90;;;;;;5073626;28;20168;-85
2021/05/17 04:02:16;;;;;;;2.20;1.10;;;6.70;99.90;;;;;;5068636;28;20675;-84
2021/05/17 04:05:08;;;;;;;3.90;1.20;;;6.70;99.90;;;;;;5068496;28;20181;-84
2021/05/17 04:15:33;;;;;;;4.60;1.60;;;6.80;99.90;;;;;;5087462;28;20441;-84
2021/05/17 04:18:02;;;;;;;3.40;1.03;;;6.80;99.90;;;;;;5086647;28;20896;-84
2021/05/17 04:20:27;;;;;;;7.67;1.40;;;6.80;99.90;;;;;;5068541;28;20177;-84
2021/05/17 04:22:53;;;;;;;3.80;1.33;;;6.80;99.90;;;;;;5068666;28;20537;-84
2021/05/17 04:25:19;;;;;;;4.77;1.30;;;6.90;99.90;;;;;;5069019;28;20187;-84
2021/05/17 04:27:45;;;;;;;5.43;1.67;;;7.00;99.90;;;;;;5069048;28;20191;-84
2021/05/17 04:30:11;;;;;;;2.27;1.23;;;6.90;99.90;;;;;;5068794;28;20252;-84
2021/05/17 04:32:37;;;;;;;2.80;1.20;;;7.00;99.90;;;;;;5087592;28;20266;-82
2021/05/17 04:35:03;;;;;;;5.43;1.33;;;6.90;99.90;;;;;;5070232;28;20516;-82
2021/05/17 04:37:29;;;;;;;4.20;1.30;;;7.00;99.90;;;;;;5089079;28;20184;-83
2021/05/17 04:39:54;;;;;;;2.50;1.17;;;6.90;99.90;;;;;;5091994;28;20414;-82
2021/05/17 04:42:20;;;;;;;5.07;1.30;;;7.00;99.90;;;;;;5071567;28;20193;-83
2021/05/17 04:44:46;;;;;;;4.60;1.37;;;7.00;99.90;;;;;;5067508;28;20200;-82
2021/05/17 04:47:11;;;;;;;5.17;1.17;;;7.00;99.90;;;;;;5068520;28;20709;-82
2021/05/17 04:49:37;;;;;;;5.07;1.70;;;7.10;99.90;;;;;;5086502;28;20738;-82
2021/05/17 04:52:03;;;;;;;3.83;0.80;;;7.10;99.90;;;;;;5085577;28;20345;-82
2021/05/17 04:54:29;;;;;;;2.33;1.10;;;7.20;99.90;;;;;;5086050;28;20635;-82
2021/05/17 04:56:54;;;;;;;2.77;0.90;;;7.20;99.90;;;;;;5086195;28;20561;-83
2021/05/17 04:59:20;;;;;;;3.07;1.00;;;7.30;99.90;;;;;;5086079;28;20173;-82
2021/05/17 05:01:45;;;;;;;2.03;1.10;;;7.40;99.90;;;;;;5068396;28;20256;-85
2021/05/17 05:04:11;;;;;;;5.17;1.23;;;7.40;99.90;;;;;;5084842;28;20585;-83
2021/05/17 05:06:37;;;;;;;4.60;0.90;;;7.40;99.90;;;;;;5064838;28;20651;-82
2021/05/17 05:09:03;;;;;;;3.80;1.23;;;7.40;99.90;;;;;;5083848;28;20196;-82
2021/05/17 05:11:29;;;;;;;5.93;1.20;;;7.50;99.90;;;;;;5065432;28;20204;-82
2021/05/17 05:13:54;;;;;;;3.60;1.13;;;7.60;99.90;;;;;;5083439;28;20455;-83
2021/05/17 05:16:20;;;;;;;4.87;1.70;;;7.60;99.90;;;;;;5064793;28;20177;-83
2021/05/17 05:18:45;;;;;;;3.80;1.30;;;7.60;99.90;;;;;;5065052;28;20181;-83
2021/05/17 05:21:11;;;;;;;5.53;1.47;;;7.60;99.90;;;;;;5082651;28;20215;-83
2021/05/17 05:23:37;;;;;;;3.73;0.80;;;7.60;99.90;;;;;;5082753;28;20173;-83
2021/05/17 05:26:26;;;;;;;4.10;1.20;;;7.60;99.90;;;;;;5039229;28;20248;-84
2021/05/17 05:34:07;;;;;;;2.60;1.00;;;7.60;99.90;;;;;;5081420;28;20232;-83
2021/05/17 05:36:33;;;;;;;4.60;1.10;;;7.70;99.90;;;;;;5064408;28;20201;-83
2021/05/17 05:38:59;;;;;;;1.90;0.93;;;7.70;99.90;;;;;;5066064;28;20243;-84
2021/05/17 05:41:25;;;;;;;4.37;1.00;;;7.80;99.90;;;;;;5085214;28;20172;-83
2021/05/17 05:43:51;;;;;;;5.20;1.43;;;7.80;99.90;;;;;;5064832;28;20177;-82
2021/05/17 05:46:16;;;;;;;4.67;1.17;;;7.70;99.90;;;;;;5082972;28;20201;-84
2021/05/17 05:48:48;;;;;;;2.10;0.97;;;7.80;99.90;;;;;;5083909;28;20255;-83
2021/05/17 05:51:18;;;;;;;4.37;1.33;;;7.80;99.90;;;;;;5067030;28;20181;-83
2021/05/17 05:53:44;;;;;;;1.10;0.80;;;7.70;99.90;;;;;;5066664;28;20213;-83
2021/05/17 05:56:10;;;;;;;4.03;0.97;;;7.70;99.90;;;;;;5066585;28;20172;-83
2021/05/17 05:58:36;;;;;;;2.57;0.90;;;7.70;99.90;;;;;;5067145;28;20441;-84
2021/05/17 06:01:03;;;;;;;5.43;1.50;;;7.80;99.90;;;;;;5068009;28;20173;-84
2021/05/17 06:03:28;;;;;;;4.00;1.00;;;7.80;99.90;;;;;;5086094;28;20192;-84
2021/05/17 06:05:54;;;;;;;2.60;0.90;;;7.80;99.90;;;;;;5074325;28;20445;-83
2021/05/17 06:08:20;;;;;;;3.13;0.90;;;7.90;99.90;;;;;;5063680;28;20192;-84
2021/05/17 06:10:46;;;;;;;3.30;1.00;;;7.90;99.90;;;;;;5061444;28;20769;-83
2021/05/17 06:13:12;;;;;;;4.33;1.37;;;7.90;99.90;;;;;;5088837;28;20652;-83
2021/05/17 06:15:40;;;;;;;4.77;1.03;;;7.90;99.90;;;;;;5062138;28;20532;-83
2021/05/17 06:18:06;;;;;;;2.27;0.80;;;7.90;99.90;;;;;;5062780;28;20236;-83
2021/05/17 06:20:32;;;;;;;4.73;1.03;;;7.90;99.90;;;;;;5082695;28;20421;-83
2021/05/17 06:22:58;;;;;;;2.10;0.93;;;8.00;99.90;;;;;;5062903;28;20208;-84
2021/05/17 06:25:26;;;;;;;3.17;1.03;;;8.10;99.90;;;;;;5063683;28;20428;-83
2021/05/17 06:27:52;;;;;;;4.23;1.27;;;8.20;99.90;;;;;;5080310;28;20180;-83
2021/05/17 06:30:20;;;;;;;1.97;1.10;;;8.40;99.90;;;;;;5061543;28;20544;-83
2021/05/17 06:32:46;;;;;;;5.20;1.37;;;8.50;99.90;;;;;;5062496;28;20286;-83
2021/05/17 06:35:13;;;;;;;5.13;0.90;;;8.50;99.90;;;;;;5080612;28;20415;-83
2021/05/17 06:37:38;;;;;;;2.03;0.60;;;8.50;99.90;;;;;;5062886;28;20174;-82
2021/05/17 06:40:05;;;;;;;2.90;1.50;;;8.60;99.90;;;;;;5081282;28;20192;-83
2021/05/17 06:42:31;;;;;;;2.83;0.80;;;8.60;99.90;;;;;;5090828;28;20189;-82
2021/05/17 06:44:57;;;;;;;3.33;1.00;;;8.70;99.90;;;;;;5097816;28;20163;-81
2021/05/17 06:47:23;;;;;;;2.20;0.90;;;8.70;99.90;;;;;;5099952;28;20161;-82
2021/05/17 06:49:49;;;;;;;1.80;0.87;;;8.70;99.90;;;;;;5080954;28;20164;-83
2021/05/17 06:52:16;;;;;;;2.73;0.83;;;8.70;99.90;;;;;;5083094;28;20210;-84
2021/05/17 06:54:44;;;;;;;1.60;0.90;;;8.80;99.90;;;;;;5083248;28;20533;-83
2021/05/17 06:57:27;;;;;;;2.23;0.77;;;8.90;99.90;;;;;;5065194;28;20177;-83
2021/05/17 06:59:59;;;;;;;1.93;0.83;;;8.80;99.90;;;;;;5066036;28;20182;-83
2021/05/17 07:02:25;;;;;;;3.70;0.80;;;8.80;99.90;;;;;;5067040;28;20283;-83
2021/05/17 07:04:52;;;;;;;0.97;0.60;;;8.80;99.90;;;;;;5067480;28;20184;-83
2021/05/17 07:07:31;;;;;;;0.70;0.60;;;8.90;99.90;;;;;;5080694;28;20169;-82
2021/05/17 07:12:41;;;;;;;2.20;0.73;;;8.80;99.90;;;;;;5079658;28;20573;-84
2021/05/17 07:15:07;;;;;;;0.93;0.60;;;8.80;99.90;;;;;;5061707;28;20173;-82
2021/05/17 07:17:33;;;;;;;1.37;0.83;;;8.80;99.90;;;;;;5079935;28;20172;-82
2021/05/17 07:19:58;;;;;;;1.60;0.50;;;8.90;99.90;;;;;;5061731;28;20181;-82
2021/05/17 07:25:09;;;;;;;1.17;0.70;;;8.80;99.90;;;;;;5079002;28;20226;-81
2021/05/17 07:27:34;;;;;;;1.90;0.60;;;8.90;99.90;;;;;;5060743;28;20267;-82
2021/05/17 07:30:00;;;;;;;0.63;0.40;;;8.90;99.90;;;;;;5080509;28;20207;-82
2021/05/17 07:32:26;;;;;;;1.23;0.70;;;9.00;99.90;;;;;;5078834;28;20212;-82
2021/05/17 07:34:51;;;;;;;0.60;0.40;;;8.80;99.90;;;;;;5061071;28;20211;-82
2021/05/17 07:37:19;;;;;;;2.60;0.50;;;8.70;99.90;;;;;;5082141;28;20532;-82
2021/05/17 07:39:44;;;;;;;1.60;0.60;;;8.70;99.90;;;;;;5064139;28;20176;-84
2021/05/17 07:42:11;;;;;;;0.87;0.60;;;8.80;99.90;;;;;;5080991;28;20271;-83
2021/05/17 07:44:36;;;;;;;1.53;0.63;;;9.10;99.90;;;;;;5063726;28;20181;-83
2021/05/17 07:47:02;;;;;;;1.70;0.60;;;9.50;99.90;;;;;;5081034;28;20222;-82
2021/05/17 07:49:38;;;;;;;2.70;0.90;;;9.70;99.90;;;;;;5081248;28;20177;-83
2021/05/17 07:52:04;;;;;;;1.00;0.80;;;9.70;99.90;;;;;;5062939;28;20566;-84
2021/05/17 07:54:30;;;;;;;2.93;0.80;;;9.60;99.90;;;;;;5081469;28;20169;-84
2021/05/17 07:56:56;;;;;;;2.93;0.73;;;9.70;99.90;;;;;;5081413;28;20635;-83
2021/05/17 07:59:23;;;;;;;0.80;0.50;;;9.80;99.90;;;;;;5081201;28;20164;-83
2021/05/17 08:01:52;;;;;;;2.50;0.90;;;9.90;99.90;;;;;;5080632;28;20595;-83
2021/05/17 08:04:18;;;;;;;1.73;1.10;;;10.10;99.90;;;;;;5062231;28;20173;-83
2021/05/17 08:06:44;;;;;;;1.87;0.70;;;10.00;99.90;;;;;;5062108;28;20173;-84
2021/05/17 08:09:10;;;;;;;3.33;0.80;;;10.10;99.90;;;;;;5080098;28;20196;-83
2021/05/17 08:11:35;;;;;;;2.10;0.50;;;10.10;99.90;;;;;;5080320;28;20252;-83
2021/05/17 08:14:01;;;;;;;1.50;0.50;;;10.20;99.90;;;;;;5079873;28;20342;-83
2021/05/17 08:16:29;;;;;;;3.53;0.70;;;10.20;99.90;;;;;;5078844;28;20176;-83
2021/05/17 08:18:55;;;;;;;1.77;0.73;;;10.00;99.90;;;;;;5080226;28;20173;-83
2021/05/17 08:21:21;;;;;;;3.50;1.10;;;9.90;99.90;;;;;;5060316;28;20243;-83
2021/05/17 08:23:46;;;;;;;1.87;0.90;;;9.90;99.90;;;;;;5077361;28;20175;-83
2021/05/17 08:26:12;;;;;;;0.83;0.60;;;9.80;99.90;;;;;;5087517;28;20176;-84
2021/05/17 08:28:40;;;;;;;2.27;0.63;;;9.80;99.90;;;;;;5063247;28;20184;-83
2021/05/17 08:31:10;;;;;;;3.00;0.60;;;9.80;99.90;;;;;;5080604;28;20173;-83
2021/05/17 08:33:36;;;;;;;1.83;0.60;;;9.80;99.90;;;;;;5080746;28;20287;-83
2021/05/17 08:36:02;;;;;;;2.00;0.80;;;9.80;99.90;;;;;;5081163;28;20285;-83
2021/05/17 08:38:28;;;;;;;1.90;0.80;;;9.70;99.90;;;;;;5063170;28;20173;-83
2021/05/17 08:40:53;;;;;;;0.97;0.70;;;9.60;99.90;;;;;;5067351;28;20173;-83
2021/05/17 08:43:19;;;;;;;2.13;1.43;;;9.60;99.90;;;;;;5066756;28;20311;-83
2021/05/17 08:45:45;;;;;;;4.77;0.93;;;9.70;99.90;;;;;;5067111;28;20199;-83
2021/05/17 08:48:11;;;;;;;1.07;0.63;;;9.60;99.90;;;;;;5085077;28;20165;-83
2021/05/17 08:50:37;;;;;;;1.80;0.90;;;9.50;99.90;;;;;;5067155;28;20179;-83
2021/05/17 08:53:03;;;;;;;2.33;0.77;;;9.70;99.90;;;;;;5085240;28;20204;-83
2021/05/17 08:55:29;;;;;;;2.27;0.60;;;9.80;99.90;;;;;;5084547;28;20202;-83
2021/05/17 08:57:56;;;;;;;1.00;0.60;;;;;;;;;;5085534;28;20221;-83
2021/05/17 09:00:22;;;;;;;3.57;0.80;;;10.00;99.90;;;;;;5066258;28;20169;-83
2021/05/17 09:02:49;;;;;;;3.27;0.70;;;10.00;99.90;;;;;;5066612;28;20209;-83
2021/05/17 09:05:24;;;;;;;1.67;1.07;;;10.00;99.90;;;;;;5065909;28;20191;-83
2021/05/17 09:07:52;;;;;;;1.97;0.60;;;10.00;99.90;;;;;;5065393;28;20179;-83
2021/05/17 09:10:22;;;;;;;2.00;0.73;;;9.90;99.90;;;;;;5066006;28;20180;-82
2021/05/17 09:12:55;;;;;;;2.83;1.37;;;9.90;99.90;;;;;;5065731;28;20208;-83
2021/05/17 09:15:40;;;;;;;2.40;1.00;;;9.70;99.90;;;;;;5065089;28;20173;-82
2021/05/17 09:18:13;;;;;;;1.33;0.60;;;9.60;99.90;;;;;;5065630;28;20166;-82
2021/05/17 09:20:40;;;;;;;1.30;0.70;;;9.60;99.90;;;;;;5083516;28;20156;-82
2021/05/17 09:23:34;;;;;;;2.43;0.80;;;9.70;99.90;;;;;;5066257;28;20205;-83
2021/05/17 09:26:12;;;;;;;3.60;0.73;;;9.80;99.90;;;;;;5062584;28;20184;-83
2021/05/17 09:28:46;;;;;;;1.67;0.77;;;10.00;99.90;;;;;;5068754;28;20185;-83
2021/05/17 09:31:21;;;;;;;1.30;0.73;;;11.30;99.90;;;;;;5094014;28;20172;-83
2021/05/17 09:34:02;;;;;;;1.47;0.80;;;11.40;99.90;;;;;;5086183;28;20199;-83
2021/05/17 09:36:32;;;;;;;3.47;0.80;;;11.90;99.90;;;;;;5085255;28;20165;-83
2021/05/17 09:39:11;;;;;;;0.93;0.70;;;12.30;99.90;;;;;;5067400;28;20173;-83
2021/05/17 09:41:47;;;;;;;0.93;0.53;;;12.40;99.90;;;;;;5067570;28;20564;-84
2021/05/17 09:44:17;;;;;;;2.37;0.70;;;12.10;99.90;;;;;;5084613;28;20176;-83
2021/05/17 09:46:58;;;;;;;1.23;0.70;;;11.80;99.90;;;;;;5067224;28;20276;-83
2021/05/17 09:49:37;;;;;;;4.07;0.60;;;11.30;99.90;;;;;;5067335;28;20176;-84
2021/05/17 09:52:19;;;;;;;0.83;0.47;;;11.10;99.90;;;;;;5066050;28;20224;-83
2021/05/17 09:55:04;;;;;;;1.30;0.60;;;11.10;99.90;;;;;;5066198;28;20178;-82
2021/05/17 09:57:37;;;;;;;1.73;0.50;;;11.30;99.90;;;;;;5083053;28;20176;-83
2021/05/17 10:00:14;;;;;;;1.43;0.60;;;11.60;99.90;;;;;;5066044;28;20179;-82
2021/05/17 10:02:44;;;;;;;2.23;0.60;;;12.00;99.90;;;;;;5068683;28;20197;-83
2021/05/17 10:05:15;;;;;;;1.57;0.57;;;12.20;99.90;;;;;;5074794;28;20171;-83
2021/05/17 10:07:43;;;;;;;0.87;0.47;;;12.70;99.90;;;;;;5097614;28;20181;-82
2021/05/17 10:10:10;;;;;;;1.70;0.70;;;12.60;99.90;;;;;;5094594;28;20227;-84
2021/05/17 10:12:36;;;;;;;2.03;0.60;;;12.40;99.90;;;;;;5067541;28;20236;-83
2021/05/17 10:15:04;;;;;;;1.77;0.60;;;12.10;99.90;;;;;;5085953;28;20172;-84
2021/05/17 10:17:32;;;;;;;0.90;0.47;;;11.60;99.90;;;;;;5067578;28;20179;-83
2021/05/17 10:19:58;;;;;;;2.90;0.83;;;11.20;99.90;;;;;;5067274;28;20259;-83
2021/05/17 10:22:27;;;;;;;2.93;0.60;;;11.00;99.90;;;;;;5066752;28;20227;-83
2021/05/17 10:24:58;;;;;;;1.50;0.80;;;11.00;99.90;;;;;;5066135;28;20215;-83
2021/05/17 10:27:27;;;;;;;1.57;0.73;;;11.00;99.90;;;;;;5083055;28;20195;-84
2021/05/17 10:30:03;;;;;;;3.23;0.90;;;11.10;99.90;;;;;;5066244;28;20183;-83
2021/05/17 10:33:08;;;;;;;1.50;0.77;;;11.00;99.90;;;;;;5071231;28;20208;-83
2021/05/17 10:35:42;;;;;;;2.70;0.80;;;11.80;99.90;;;;;;5001133;28;20179;-83
2021/05/17 10:46:44;;;;;;;2.10;0.57;;;12.60;99.90;;;;;;5083411;28;20239;-83
2021/05/17 10:49:17;;;;;;;1.07;0.60;;;13.50;99.90;;;;;;5064687;28;20184;-83
2021/05/17 10:51:43;;;;;;;1.30;0.80;;;13.20;99.90;;;;;;5064413;28;20200;-84
2021/05/17 10:54:24;;;;;;;2.60;0.87;;;13.20;99.90;;;;;;5064477;28;20287;-83
2021/05/17 10:57:00;;;;;;;1.60;0.60;;;13.70;99.90;;;;;;5064298;28;20583;-83
2021/05/17 11:02:27;;;;;;;3.07;0.60;;;14.10;99.90;;;;;;5081675;28;20218;-83
2021/05/17 11:04:56;;;;;;;2.60;0.90;;;13.20;99.90;;;;;;5061102;28;20642;-83
2021/05/17 11:07:54;;;;;;;2.10;0.90;;;13.50;99.90;;;;;;5061625;28;20180;-83
2021/05/17 11:10:22;;;;;;;4.10;0.83;;;13.90;99.90;;;;;;5048546;28;20188;-83
2021/05/17 11:12:51;;;;;;;1.10;0.60;;;14.20;99.90;;;;;;5079224;28;20212;-84
2021/05/17 11:15:19;;;;;;;2.93;0.90;;;14.70;99.90;;;;;;5079780;28;20626;-83
2021/05/17 11:18:08;;;;;;;3.03;0.87;;;15.00;99.90;;;;;;5062138;28;20180;-84
2021/05/17 11:20:40;;;;;;;4.03;0.93;;;14.80;99.90;;;;;;5072678;28;20188;-84
2021/05/17 11:23:22;;;;;;;1.47;0.90;;;14.40;99.90;;;;;;5062148;28;20263;-83
2021/05/17 11:25:57;;;;;;;2.80;1.03;;;14.90;99.90;;;;;;5079832;28;20171;-83
2021/05/17 11:28:41;;;;;;;1.63;0.90;;;14.80;99.90;;;;;;5062050;28;20180;-84
2021/05/17 11:31:19;;;;;;;1.80;1.07;;;14.90;99.90;;;;;;5062451;28;20625;-84
2021/05/17 11:33:48;;;;;;;1.70;1.00;;;14.80;99.90;;;;;;5061284;28;20209;-83
2021/05/17 11:36:15;;;;;;;0.67;0.60;;;14.90;99.90;;;;;;5080203;28;20184;-84
2021/05/17 11:39:02;;;;;;;1.07;0.70;;;15.30;99.90;;;;;;5062377;28;20173;-84
2021/05/17 11:41:30;;;;;;;1.53;0.70;;;16.00;99.90;;;;;;5080786;28;20244;-84
2021/05/17 11:44:00;;;;;;;1.60;1.00;;;16.70;99.90;;;;;;5063064;28;20542;-84
2021/05/17 11:46:26;;;;;;;1.93;0.80;;;16.10;99.90;;;;;;5081369;28;20204;-84
2021/05/17 11:48:52;;;;;;;1.27;0.70;;;15.60;99.90;;;;;;5082778;28;20178;-83
2021/05/17 11:51:23;;;;;;;2.40;0.70;;;16.30;99.90;;;;;;5064922;28;20181;-83
2021/05/17 11:53:49;;;;;;;2.37;0.70;;;15.70;99.90;;;;;;5085100;28;20241;-83
2021/05/17 11:56:15;;;;;;;1.53;0.80;;;15.50;99.90;;;;;;5058922;28;20224;-83
2021/05/17 11:58:41;;;;;;;2.37;0.70;;;15.00;99.90;;;;;;5077591;28;20205;-83
2021/05/17 12:01:18;;;;;;;1.33;0.80;;;15.20;99.90;;;;;;5077032;28;20180;-83
2021/05/17 12:03:44;;;;;;;2.97;0.63;;;16.20;99.20;;;;;;5058930;28;20177;-83
2021/05/17 12:06:10;;;;;;;2.30;0.80;;;15.70;99.10;;;;;;5058462;28;20199;-83
2021/05/17 12:08:39;;;;;;;2.93;0.70;;;15.90;99.30;;;;;;5077256;28;20227;-83
2021/05/17 12:11:14;;;;;;;0.70;0.50;;;15.90;99.90;;;;;;5058516;28;20188;-83
2021/05/17 12:13:47;;;;;;;2.63;0.77;;;16.80;98.60;;;;;;5060143;28;20196;-83
2021/05/17 12:16:25;;;;;;;1.07;0.70;;;16.30;97.10;;;;;;5063986;28;20200;-83
2021/05/17 12:19:03;;;;;;;1.20;0.70;;;15.20;98.70;;;;;;5087582;28;20585;-83
2021/05/17 12:21:37;;;;;;;1.00;0.70;;;14.50;99.90;;;;;;5067707;28;20212;-82
2021/05/17 12:24:04;;;;;;;2.20;1.00;;;13.90;99.90;;;;;;5063426;28;20179;-82
2021/05/17 12:26:52;;;;;;;1.03;0.73;;;12.70;99.90;;;;;;5082060;28;20205;-83
2021/05/17 12:29:20;;;;;;;2.43;0.80;;;11.90;99.90;;;;;;5063962;28;20180;-82
2021/05/17 12:31:46;;;;;;;2.67;0.53;;;11.50;99.90;;;;;;5063513;28;20670;-81
2021/05/17 12:34:12;;;;;;;2.00;0.40;;;10.30;99.90;;;;;;5080770;28;20203;-81
2021/05/17 12:36:41;;;;;;;1.47;0.43;;;8.80;99.90;;;;;;5081094;28;20169;-81
2021/05/17 12:39:14;;;;;;;1.03;0.60;;;8.10;99.90;;;;;;5080842;28;20660;-81
2021/05/17 12:41:41;;;;;;;1.30;0.40;;;7.90;99.90;;;;;;5063192;28;20292;-81
2021/05/17 12:44:31;;;;;;;1.50;0.60;;;7.90;99.90;;;;;;5062526;28;20181;-81
2021/05/17 12:47:12;;;;;;;0.57;0.50;;;8.00;99.90;;;;;;5068047;28;20193;-82
2021/05/17 12:49:53;;;;;;;1.07;0.70;;;8.30;99.90;;;;;;5071117;28;20178;-82
2021/05/17 12:52:31;;;;;;;0.83;0.30;;;8.60;99.90;;;;;;5064259;28;20232;-82
2021/05/17 12:55:16;;;;;;;0.70;0.63;;;8.70;99.90;;;;;;5064672;28;20169;-82
2021/05/17 12:57:51;;;;;;;0.40;0.40;;;10.00;99.90;;;;;;5064638;28;20173;-82
2021/05/17 13:00:35;;;;;;;0.67;0.53;;;11.30;99.90;;;;;;5064982;28;20196;-82
2021/05/17 13:03:24;;;;;;;0.50;0.50;;;12.60;99.90;;;;;;5063829;28;20201;-82
2021/05/17 13:06:07;;;;;;;0.83;0.60;;;13.80;99.90;;;;;;5062892;28;20267;-82
2021/05/17 13:08:35;;;;;;;1.13;0.60;;;14.40;99.90;;;;;;5062975;28;20183;-82
2021/05/17 13:11:09;;;;;;;1.87;0.40;;;14.80;99.90;;;;;;5063176;28;20271;-82
2021/05/17 13:13:56;;;;;;;0.77;0.50;;;15.10;99.90;;;;;;5063163;28;20208;-82
2021/05/17 13:16:22;;;;;;;0.40;0.40;;;15.00;99.90;;;;;;5073417;28;20184;-81
2021/05/17 13:30:30;;;;;;;0.60;0.60;;;15.50;99.90;;;;;;5084770;28;20184;-82
2021/05/17 13:32:56;;;;;;;1.13;0.70;;;15.20;99.90;;;;;;5079106;28;20276;-83
2021/05/17 13:35:25;;;;;;;0.53;0.53;;;14.00;99.90;;;;;;5067423;28;20180;-83
2021/05/17 13:37:50;;;;;;;1.10;0.70;;;13.30;99.90;;;;;;5067622;28;20183;-83
2021/05/17 13:40:17;;;;;;;3.13;1.23;;;12.90;99.90;;;;;;5085741;28;20169;-83
2021/05/17 13:42:43;;;;;;;1.27;0.90;;;14.00;99.90;;;;;;5067382;28;20193;-83
2021/05/17 13:45:11;;;;;;;1.23;0.60;;;15.50;99.90;;;;;;5084569;28;20176;-83
2021/05/17 13:47:37;;;;;;;1.07;0.97;;;16.40;99.90;;;;;;5084765;28;20180;-84
2021/05/17 13:50:15;;;;;;;1.10;0.90;;;15.80;99.90;;;;;;5065562;28;20180;-84